sensor_id;sensor_type;location;lat;lon;timestamp;temperature;humidity
10129;DHT22;5104;50.720;7.044;2023-05-10T00:01:36;13.50;99.90
10129;DHT22;5104;50.720;7.044;2023-05-10T00:04:03;13.50;99.90
10129;DHT22;5104;50.720;7.044;2023-05-10T00:06:30;13.50;99.90
10129;DHT22;5104;50.720;7.044;2023-05-10T00:08:57;13.60;99.90
10129;DHT22;5104;50.720;7.044;2023-05-10T00:11:24;13.60;99.90
10129;DHT22;5104;50.720;7.044;2023-05-10T00:13:52;13.50;99.90
10129;DHT22;5104;50.720;7.044;2023-05-10T00:16:19;13.60;99.90
10129;DHT22;5104;50.720;7.044;2023-05-10T00:18:46;13.50;99.90
10129;DHT22;5104;50.720;7.044;2023-05-10T00:21:13;13.60;99.90
10129;DHT22;5104;50.720;7.044;2023-05-10T00:23:40;13.60;99.90
10129;DHT22;5104;50.720;7.044;2023-05-10T00:26:07;13.60;99.90
10129;DHT22;5104;50.720;7.044;2023-05-10T00:28:34;13.50;99.90
10129;DHT22;5104;50.720;7.044;2023-05-10T00:31:02;13.50;99.90
10129;DHT22;5104;50.720;7.044;2023-05-10T00:33:29;13.40;99.90
10129;DHT22;5104;50.720;7.044;2023-05-10T00:35:56;13.50;99.90
10129;DHT22;5104;50.720;7.044;2023-05-10T00:38:23;13.50;99.90
10129;DHT22;5104;50.720;7.044;2023-05-10T00:40:50;13.50;99.90
10129;DHT22;5104;50.720;7.044;2023-05-10T00:43:17;13.50;99.90
10129;DHT22;5104;50.720;7.044;2023-05-10T00:45:44;13.50;99.90
10129;DHT22;5104;50.720;7.044;2023-05-10T00:48:12;13.50;99.90
10129;DHT22;5104;50.720;7.044;2023-05-10T00:50:39;13.50;99.90
10129;DHT22;5104;50.720;7.044;2023-05-10T00:53:07;13.50;99.90
10129;DHT22;5104;50.720;7.044;2023-05-10T00:55:35;13.50;99.90
10129;DHT22;5104;50.720;7.044;2023-05-10T00:58:02;13.50;99.90
10129;DHT22;5104;50.720;7.044;2023-05-10T01:00:29;13.50;99.90
10129;DHT22;5104;50.720;7.044;2023-05-10T01:02:56;13.50;99.90
10129;DHT22;5104;50.720;7.044;2023-05-10T01:05:24;13.50;99.90
10129;DHT22;5104;50.720;7.044;2023-05-10T01:07:52;13.50;99.90
10129;DHT22;5104;50.720;7.044;2023-05-10T01:10:19;13.50;99.90
10129;DHT22;5104;50.720;7.044;2023-05-10T01:12:47;13.60;99.90
10129;DHT22;5104;50.720;7.044;2023-05-10T01:15:15;13.60;99.90
10129;DHT22;5104;50.720;7.044;2023-05-10T01:17:44;13.50;99.90
10129;DHT22;5104;50.720;7.044;2023-05-10T01:20:12;13.60;99.90
10129;DHT22;5104;50.720;7.044;2023-05-10T01:23:04;13.60;99.90
10129;DHT22;5104;50.720;7.044;2023-05-10T01:29:13;13.50;99.90
10129;DHT22;5104;50.720;7.044;2023-05-10T01:34:39;13.50;99.90
10129;DHT22;5104;50.720;7.044;2023-05-10T01:37:13;13.50;99.90
10129;DHT22;5104;50.720;7.044;2023-05-10T01:39:45;13.50;99.90
10129;DHT22;5104;50.720;7.044;2023-05-10T01:42:16;13.50;99.90
10129;DHT22;5104;50.720;7.044;2023-05-10T01:44:49;13.50;99.90
10129;DHT22;5104;50.720;7.044;2023-05-10T01:47:24;13.50;99.90
10129;DHT22;5104;50.720;7.044;2023-05-10T01:49:55;13.50;99.90
10129;DHT22;5104;50.720;7.044;2023-05-10T01:52:26;13.40;99.90
10129;DHT22;5104;50.720;7.044;2023-05-10T01:55:01;13.40;99.90
10129;DHT22;5104;50.720;7.044;2023-05-10T01:57:37;13.40;99.90
10129;DHT22;5104;50.720;7.044;2023-05-10T02:00:07;13.40;99.90
10129;DHT22;5104;50.720;7.044;2023-05-10T02:02:38;13.40;99.90
10129;DHT22;5104;50.720;7.044;2023-05-10T02:05:07;13.40;99.90
10129;DHT22;5104;50.720;7.044;2023-05-10T02:07:36;13.40;99.90
10129;DHT22;5104;50.720;7.044;2023-05-10T02:10:05;13.40;99.90
10129;DHT22;5104;50.720;7.044;2023-05-10T02:12:35;13.40;99.90
10129;DHT22;5104;50.720;7.044;2023-05-10T02:15:05;13.30;99.90
10129;DHT22;5104;50.720;7.044;2023-05-10T02:17:33;13.30;99.90
10129;DHT22;5104;50.720;7.044;2023-05-10T02:20:03;13.30;99.90
10129;DHT22;5104;50.720;7.044;2023-05-10T02:22:31;13.30;99.90
10129;DHT22;5104;50.720;7.044;2023-05-10T02:25:00;13.20;99.90
10129;DHT22;5104;50.720;7.044;2023-05-10T02:27:28;13.20;99.90
10129;DHT22;5104;50.720;7.044;2023-05-10T02:29:56;13.30;99.90
10129;DHT22;5104;50.720;7.044;2023-05-10T02:32:25;13.30;99.90
10129;DHT22;5104;50.720;7.044;2023-05-10T02:34:53;13.30;99.90
10129;DHT22;5104;50.720;7.044;2023-05-10T02:37:22;13.30;99.90
10129;DHT22;5104;50.720;7.044;2023-05-10T02:39:51;13.20;99.90
10129;DHT22;5104;50.720;7.044;2023-05-10T02:42:19;13.20;99.90
10129;DHT22;5104;50.720;7.044;2023-05-10T02:44:50;13.30;99.90
10129;DHT22;5104;50.720;7.044;2023-05-10T02:47:19;13.30;99.90
10129;DHT22;5104;50.720;7.044;2023-05-10T02:49:47;13.30;99.90
10129;DHT22;5104;50.720;7.044;2023-05-10T02:52:21;13.30;99.90
10129;DHT22;5104;50.720;7.044;2023-05-10T02:54:54;13.20;99.90
10129;DHT22;5104;50.720;7.044;2023-05-10T02:57:26;13.20;99.90
10129;DHT22;5104;50.720;7.044;2023-05-10T02:59:54;13.30;99.90
10129;DHT22;5104;50.720;7.044;2023-05-10T03:02:21;13.30;99.90
10129;DHT22;5104;50.720;7.044;2023-05-10T03:04:48;13.30;99.90
10129;DHT22;5104;50.720;7.044;2023-05-10T03:07:15;13.30;99.90
10129;DHT22;5104;50.720;7.044;2023-05-10T03:09:44;13.30;99.90
10129;DHT22;5104;50.720;7.044;2023-05-10T03:12:18;13.40;99.90
10129;DHT22;5104;50.720;7.044;2023-05-10T03:14:53;13.40;99.90
10129;DHT22;5104;50.720;7.044;2023-05-10T03:17:25;13.30;99.90
10129;DHT22;5104;50.720;7.044;2023-05-10T03:19:57;13.40;99.90
10129;DHT22;5104;50.720;7.044;2023-05-10T03:22:26;13.40;99.90
10129;DHT22;5104;50.720;7.044;2023-05-10T03:24:56;13.40;99.90
10129;DHT22;5104;50.720;7.044;2023-05-10T03:27:26;13.40;99.90
10129;DHT22;5104;50.720;7.044;2023-05-10T03:29:54;13.40;99.90
10129;DHT22;5104;50.720;7.044;2023-05-10T03:32:22;13.30;99.90
10129;DHT22;5104;50.720;7.044;2023-05-10T03:34:49;13.30;99.90
10129;DHT22;5104;50.720;7.044;2023-05-10T03:37:16;13.40;99.90
10129;DHT22;5104;50.720;7.044;2023-05-10T03:39:43;13.30;99.90
10129;DHT22;5104;50.720;7.044;2023-05-10T03:42:10;13.30;99.90
10129;DHT22;5104;50.720;7.044;2023-05-10T03:44:39;13.30;99.90
10129;DHT22;5104;50.720;7.044;2023-05-10T03:47:05;13.30;99.90
10129;DHT22;5104;50.720;7.044;2023-05-10T03:49:32;13.30;99.90
10129;DHT22;5104;50.720;7.044;2023-05-10T03:51:59;13.30;99.90
10129;DHT22;5104;50.720;7.044;2023-05-10T03:54:26;13.40;99.90
10129;DHT22;5104;50.720;7.044;2023-05-10T03:56:53;13.40;99.90
10129;DHT22;5104;50.720;7.044;2023-05-10T03:59:20;13.40;99.90
10129;DHT22;5104;50.720;7.044;2023-05-10T04:01:48;13.40;99.90
10129;DHT22;5104;50.720;7.044;2023-05-10T04:04:15;13.40;99.90
10129;DHT22;5104;50.720;7.044;2023-05-10T04:06:43;13.40;99.90
10129;DHT22;5104;50.720;7.044;2023-05-10T04:09:10;13.50;99.90
10129;DHT22;5104;50.720;7.044;2023-05-10T04:11:37;13.50;99.90
10129;DHT22;5104;50.720;7.044;2023-05-10T04:14:04;13.50;99.90
10129;DHT22;5104;50.720;7.044;2023-05-10T04:16:31;13.50;99.90
10129;DHT22;5104;50.720;7.044;2023-05-10T04:18:59;13.50;99.90
10129;DHT22;5104;50.720;7.044;2023-05-10T04:21:26;13.60;99.90
10129;DHT22;5104;50.720;7.044;2023-05-10T04:23:53;13.60;99.90
10129;DHT22;5104;50.720;7.044;2023-05-10T04:26:20;13.60;99.90
10129;DHT22;5104;50.720;7.044;2023-05-10T04:28:47;13.70;99.90
10129;DHT22;5104;50.720;7.044;2023-05-10T04:31:14;13.70;99.90
10129;DHT22;5104;50.720;7.044;2023-05-10T04:33:41;13.70;99.90
10129;DHT22;5104;50.720;7.044;2023-05-10T04:36:09;13.70;99.90
10129;DHT22;5104;50.720;7.044;2023-05-10T04:38:36;13.70;99.90
10129;DHT22;5104;50.720;7.044;2023-05-10T04:41:07;13.70;99.90
10129;DHT22;5104;50.720;7.044;2023-05-10T04:43:34;13.70;99.90
10129;DHT22;5104;50.720;7.044;2023-05-10T04:46:01;13.70;99.90
10129;DHT22;5104;50.720;7.044;2023-05-10T04:48:28;13.70;99.90
10129;DHT22;5104;50.720;7.044;2023-05-10T04:50:55;13.70;99.90
10129;DHT22;5104;50.720;7.044;2023-05-10T04:53:24;13.70;99.90
10129;DHT22;5104;50.720;7.044;2023-05-10T04:55:50;13.70;99.90
10129;DHT22;5104;50.720;7.044;2023-05-10T04:58:17;13.70;99.90
10129;DHT22;5104;50.720;7.044;2023-05-10T05:00:44;13.70;99.90
10129;DHT22;5104;50.720;7.044;2023-05-10T05:03:11;13.80;99.90
10129;DHT22;5104;50.720;7.044;2023-05-10T05:05:38;13.80;99.90
10129;DHT22;5104;50.720;7.044;2023-05-10T05:08:06;13.80;99.90
10129;DHT22;5104;50.720;7.044;2023-05-10T05:10:34;13.80;99.90
10129;DHT22;5104;50.720;7.044;2023-05-10T05:13:01;13.90;99.90
10129;DHT22;5104;50.720;7.044;2023-05-10T05:15:28;13.90;99.90
10129;DHT22;5104;50.720;7.044;2023-05-10T05:17:56;13.90;99.90
10129;DHT22;5104;50.720;7.044;2023-05-10T05:20:23;14.00;99.90
10129;DHT22;5104;50.720;7.044;2023-05-10T05:22:49;14.00;99.90
10129;DHT22;5104;50.720;7.044;2023-05-10T05:25:16;14.10;99.90
10129;DHT22;5104;50.720;7.044;2023-05-10T05:27:45;14.20;99.90
10129;DHT22;5104;50.720;7.044;2023-05-10T05:30:12;14.30;99.90
10129;DHT22;5104;50.720;7.044;2023-05-10T05:32:38;14.30;99.90
10129;DHT22;5104;50.720;7.044;2023-05-10T05:35:06;14.30;99.90
10129;DHT22;5104;50.720;7.044;2023-05-10T05:37:33;14.40;99.90
10129;DHT22;5104;50.720;7.044;2023-05-10T05:40:01;14.50;99.90
10129;DHT22;5104;50.720;7.044;2023-05-10T05:42:30;14.50;99.90
10129;DHT22;5104;50.720;7.044;2023-05-10T05:44:59;14.50;99.90
10129;DHT22;5104;50.720;7.044;2023-05-10T05:47:29;14.60;99.90
10129;DHT22;5104;50.720;7.044;2023-05-10T05:49:56;14.70;99.90
10129;DHT22;5104;50.720;7.044;2023-05-10T05:52:23;14.80;99.90
10129;DHT22;5104;50.720;7.044;2023-05-10T05:54:53;15.00;99.90
10129;DHT22;5104;50.720;7.044;2023-05-10T05:57:20;15.00;99.90
10129;DHT22;5104;50.720;7.044;2023-05-10T05:59:48;15.10;99.90
10129;DHT22;5104;50.720;7.044;2023-05-10T06:02:17;15.30;99.90
10129;DHT22;5104;50.720;7.044;2023-05-10T06:04:44;15.40;99.90
10129;DHT22;5104;50.720;7.044;2023-05-10T06:07:11;15.60;99.90
10129;DHT22;5104;50.720;7.044;2023-05-10T06:09:39;15.60;99.90
10129;DHT22;5104;50.720;7.044;2023-05-10T06:12:09;15.60;99.90
10129;DHT22;5104;50.720;7.044;2023-05-10T06:14:40;15.60;99.90
10129;DHT22;5104;50.720;7.044;2023-05-10T06:17:08;15.60;99.90
10129;DHT22;5104;50.720;7.044;2023-05-10T06:19:37;15.50;99.90
10129;DHT22;5104;50.720;7.044;2023-05-10T06:22:10;15.40;99.90
10129;DHT22;5104;50.720;7.044;2023-05-10T06:24:39;15.40;99.90
10129;DHT22;5104;50.720;7.044;2023-05-10T06:27:10;15.30;99.90
10129;DHT22;5104;50.720;7.044;2023-05-10T06:29:37;15.30;99.90
10129;DHT22;5104;50.720;7.044;2023-05-10T06:32:04;15.20;99.90
10129;DHT22;5104;50.720;7.044;2023-05-10T06:34:32;15.20;99.90
10129;DHT22;5104;50.720;7.044;2023-05-10T06:37:02;15.20;99.90
10129;DHT22;5104;50.720;7.044;2023-05-10T06:39:30;15.20;99.90
10129;DHT22;5104;50.720;7.044;2023-05-10T06:41:57;15.20;99.90
10129;DHT22;5104;50.720;7.044;2023-05-10T06:44:24;15.10;99.90
10129;DHT22;5104;50.720;7.044;2023-05-10T06:46:51;15.10;99.90
10129;DHT22;5104;50.720;7.044;2023-05-10T06:49:20;15.20;99.90
10129;DHT22;5104;50.720;7.044;2023-05-10T06:51:47;15.20;99.90
10129;DHT22;5104;50.720;7.044;2023-05-10T06:54:15;15.20;99.90
10129;DHT22;5104;50.720;7.044;2023-05-10T06:56:43;15.20;99.90
10129;DHT22;5104;50.720;7.044;2023-05-10T06:59:11;15.10;99.90
10129;DHT22;5104;50.720;7.044;2023-05-10T07:01:39;15.20;99.90
10129;DHT22;5104;50.720;7.044;2023-05-10T07:04:06;15.10;99.90
10129;DHT22;5104;50.720;7.044;2023-05-10T07:06:34;15.20;99.90
10129;DHT22;5104;50.720;7.044;2023-05-10T07:09:02;15.10;99.90
10129;DHT22;5104;50.720;7.044;2023-05-10T07:11:31;15.10;99.90
10129;DHT22;5104;50.720;7.044;2023-05-10T07:13:58;15.20;99.90
10129;DHT22;5104;50.720;7.044;2023-05-10T07:16:25;15.20;99.90
10129;DHT22;5104;50.720;7.044;2023-05-10T07:18:52;15.30;99.90
10129;DHT22;5104;50.720;7.044;2023-05-10T07:21:19;15.10;99.90
10129;DHT22;5104;50.720;7.044;2023-05-10T07:23:49;15.10;99.90
10129;DHT22;5104;50.720;7.044;2023-05-10T07:26:25;15.10;99.90
10129;DHT22;5104;50.720;7.044;2023-05-10T07:28:54;15.10;99.90
10129;DHT22;5104;50.720;7.044;2023-05-10T07:31:43;15.10;99.90
10129;DHT22;5104;50.720;7.044;2023-05-10T07:34:14;15.20;99.90
10129;DHT22;5104;50.720;7.044;2023-05-10T07:36:41;15.30;99.90
10129;DHT22;5104;50.720;7.044;2023-05-10T07:39:08;15.40;99.90
10129;DHT22;5104;50.720;7.044;2023-05-10T07:41:36;15.40;99.90
10129;DHT22;5104;50.720;7.044;2023-05-10T07:44:06;15.50;99.90
10129;DHT22;5104;50.720;7.044;2023-05-10T07:46:33;15.50;99.90
10129;DHT22;5104;50.720;7.044;2023-05-10T07:49:00;15.60;99.90
10129;DHT22;5104;50.720;7.044;2023-05-10T07:51:27;15.60;99.90
10129;DHT22;5104;50.720;7.044;2023-05-10T07:53:54;15.60;99.90
10129;DHT22;5104;50.720;7.044;2023-05-10T07:56:23;15.50;99.90
10129;DHT22;5104;50.720;7.044;2023-05-10T07:58:50;15.50;99.90
10129;DHT22;5104;50.720;7.044;2023-05-10T08:01:20;15.50;99.90
10129;DHT22;5104;50.720;7.044;2023-05-10T08:03:47;15.60;99.90
10129;DHT22;5104;50.720;7.044;2023-05-10T08:06:15;15.50;99.90
10129;DHT22;5104;50.720;7.044;2023-05-10T08:08:42;15.60;99.90
10129;DHT22;5104;50.720;7.044;2023-05-10T08:11:12;15.90;99.90
10129;DHT22;5104;50.720;7.044;2023-05-10T08:13:42;16.20;99.90
10129;DHT22;5104;50.720;7.044;2023-05-10T08:16:10;16.40;99.90
10129;DHT22;5104;50.720;7.044;2023-05-10T08:18:45;16.60;99.90
10129;DHT22;5104;50.720;7.044;2023-05-10T08:21:14;16.90;99.90
10129;DHT22;5104;50.720;7.044;2023-05-10T08:23:42;17.30;99.90
10129;DHT22;5104;50.720;7.044;2023-05-10T08:26:09;17.60;99.90
10129;DHT22;5104;50.720;7.044;2023-05-10T08:28:36;17.90;99.90
10129;DHT22;5104;50.720;7.044;2023-05-10T08:31:04;18.00;1.00
10129;DHT22;5104;50.720;7.044;2023-05-10T08:33:31;17.70;99.90
10129;DHT22;5104;50.720;7.044;2023-05-10T08:36:00;17.50;1.00
10129;DHT22;5104;50.720;7.044;2023-05-10T08:38:28;17.30;99.90
10129;DHT22;5104;50.720;7.044;2023-05-10T08:40:56;17.40;1.00
10129;DHT22;5104;50.720;7.044;2023-05-10T08:43:26;17.50;99.90
10129;DHT22;5104;50.720;7.044;2023-05-10T08:45:54;17.70;1.00
10129;DHT22;5104;50.720;7.044;2023-05-10T08:48:23;17.80;1.00
10129;DHT22;5104;50.720;7.044;2023-05-10T08:50:53;17.90;99.90
10129;DHT22;5104;50.720;7.044;2023-05-10T08:53:24;18.00;1.00
10129;DHT22;5104;50.720;7.044;2023-05-10T08:55:51;17.60;1.00
10129;DHT22;5104;50.720;7.044;2023-05-10T08:58:19;17.30;99.90
10129;DHT22;5104;50.720;7.044;2023-05-10T09:00:48;17.00;1.00
10129;DHT22;5104;50.720;7.044;2023-05-10T09:03:16;16.80;1.80
10129;DHT22;5104;50.720;7.044;2023-05-10T09:05:44;16.80;99.90
10129;DHT22;5104;50.720;7.044;2023-05-10T09:08:11;16.90;1.00
10129;DHT22;5104;50.720;7.044;2023-05-10T09:10:41;16.80;1.00
10129;DHT22;5104;50.720;7.044;2023-05-10T09:13:18;16.70;36.00
10129;DHT22;5104;50.720;7.044;2023-05-10T09:15:49;16.50;99.90
10129;DHT22;5104;50.720;7.044;2023-05-10T09:18:16;16.40;1.00
10129;DHT22;5104;50.720;7.044;2023-05-10T09:20:46;16.20;1.00
10129;DHT22;5104;50.720;7.044;2023-05-10T09:23:16;16.10;1.00
10129;DHT22;5104;50.720;7.044;2023-05-10T09:25:45;16.10;1.00
10129;DHT22;5104;50.720;7.044;2023-05-10T09:28:12;16.10;99.90
10129;DHT22;5104;50.720;7.044;2023-05-10T09:30:40;16.40;1.00
10129;DHT22;5104;50.720;7.044;2023-05-10T09:33:08;16.50;1.00
10129;DHT22;5104;50.720;7.044;2023-05-10T09:35:35;16.90;63.00
10129;DHT22;5104;50.720;7.044;2023-05-10T09:38:05;17.20;1.00
10129;DHT22;5104;50.720;7.044;2023-05-10T09:40:32;17.60;1.00
10129;DHT22;5104;50.720;7.044;2023-05-10T09:43:02;17.80;1.00
10129;DHT22;5104;50.720;7.044;2023-05-10T09:45:34;18.30;57.70
10129;DHT22;5104;50.720;7.044;2023-05-10T09:48:02;18.70;1.00
10129;DHT22;5104;50.720;7.044;2023-05-10T09:50:30;18.90;1.00
10129;DHT22;5104;50.720;7.044;2023-05-10T09:52:58;18.80;99.90
10129;DHT22;5104;50.720;7.044;2023-05-10T09:55:26;19.20;1.00
10129;DHT22;5104;50.720;7.044;2023-05-10T09:58:05;19.40;99.90
10129;DHT22;5104;50.720;7.044;2023-05-10T10:00:45;19.50;99.90
10129;DHT22;5104;50.720;7.044;2023-05-10T10:03:18;19.50;40.40
10129;DHT22;5104;50.720;7.044;2023-05-10T10:05:47;19.20;99.90
10129;DHT22;5104;50.720;7.044;2023-05-10T10:08:14;19.40;29.80
10129;DHT22;5104;50.720;7.044;2023-05-10T10:10:42;19.60;99.90
10129;DHT22;5104;50.720;7.044;2023-05-10T10:13:11;19.80;1.00
10129;DHT22;5104;50.720;7.044;2023-05-10T10:15:39;20.00;1.00
10129;DHT22;5104;50.720;7.044;2023-05-10T10:18:06;19.90;1.00
10129;DHT22;5104;50.720;7.044;2023-05-10T10:20:37;19.50;1.00
10129;DHT22;5104;50.720;7.044;2023-05-10T10:23:04;18.80;99.90
10129;DHT22;5104;50.720;7.044;2023-05-10T10:25:31;18.60;99.90
10129;DHT22;5104;50.720;7.044;2023-05-10T10:28:08;18.10;99.90
10129;DHT22;5104;50.720;7.044;2023-05-10T10:30:42;18.00;1.00
10129;DHT22;5104;50.720;7.044;2023-05-10T10:33:38;17.90;1.00
10129;DHT22;5104;50.720;7.044;2023-05-10T10:36:07;18.10;1.00
10129;DHT22;5104;50.720;7.044;2023-05-10T10:41:28;18.30;54.20
10129;DHT22;5104;50.720;7.044;2023-05-10T10:44:23;18.20;1.00
10129;DHT22;5104;50.720;7.044;2023-05-10T10:47:02;18.30;1.00
10129;DHT22;5104;50.720;7.044;2023-05-10T10:49:31;18.30;1.00
10129;DHT22;5104;50.720;7.044;2023-05-10T10:52:23;18.20;1.00
10129;DHT22;5104;50.720;7.044;2023-05-10T10:54:58;18.00;99.90
10129;DHT22;5104;50.720;7.044;2023-05-10T10:57:25;18.20;1.00
10129;DHT22;5104;50.720;7.044;2023-05-10T11:00:18;18.70;1.00
10129;DHT22;5104;50.720;7.044;2023-05-10T11:02:50;19.10;1.00
10129;DHT22;5104;50.720;7.044;2023-05-10T11:05:44;19.70;99.90
10129;DHT22;5104;50.720;7.044;2023-05-10T11:08:16;20.30;99.90
10129;DHT22;5104;50.720;7.044;2023-05-10T11:11:04;19.80;1.00
10129;DHT22;5104;50.720;7.044;2023-05-10T11:13:36;20.20;1.00
10129;DHT22;5104;50.720;7.044;2023-05-10T11:16:17;20.60;1.00
10129;DHT22;5104;50.720;7.044;2023-05-10T11:18:58;20.60;99.90
10129;DHT22;5104;50.720;7.044;2023-05-10T11:21:30;20.90;1.00
10129;DHT22;5104;50.720;7.044;2023-05-10T11:23:58;20.60;1.00
10129;DHT22;5104;50.720;7.044;2023-05-10T11:26:30;20.50;1.00
10129;DHT22;5104;50.720;7.044;2023-05-10T11:28:57;20.20;99.90
10129;DHT22;5104;50.720;7.044;2023-05-10T11:31:26;20.20;99.90
10129;DHT22;5104;50.720;7.044;2023-05-10T11:33:56;20.20;99.90
10129;DHT22;5104;50.720;7.044;2023-05-10T11:36:26;20.50;99.90
10129;DHT22;5104;50.720;7.044;2023-05-10T11:38:53;20.80;1.00
10129;DHT22;5104;50.720;7.044;2023-05-10T11:41:21;20.90;1.00
10129;DHT22;5104;50.720;7.044;2023-05-10T11:43:50;21.10;1.00
10129;DHT22;5104;50.720;7.044;2023-05-10T11:46:19;21.00;1.00
10129;DHT22;5104;50.720;7.044;2023-05-10T11:48:48;21.20;1.00
10129;DHT22;5104;50.720;7.044;2023-05-10T11:51:20;21.00;1.00
10129;DHT22;5104;50.720;7.044;2023-05-10T11:53:49;20.40;1.00
10129;DHT22;5104;50.720;7.044;2023-05-10T11:56:16;19.90;1.00
10129;DHT22;5104;50.720;7.044;2023-05-10T11:58:43;20.00;97.80
10129;DHT22;5104;50.720;7.044;2023-05-10T12:01:12;19.80;1.00
10129;DHT22;5104;50.720;7.044;2023-05-10T12:03:40;20.10;1.00
10129;DHT22;5104;50.720;7.044;2023-05-10T12:06:07;19.80;99.90
10129;DHT22;5104;50.720;7.044;2023-05-10T12:08:35;20.00;99.90
10129;DHT22;5104;50.720;7.044;2023-05-10T12:11:06;20.10;1.00
10129;DHT22;5104;50.720;7.044;2023-05-10T12:13:38;19.70;99.90
10129;DHT22;5104;50.720;7.044;2023-05-10T12:16:17;19.90;99.90
10129;DHT22;5104;50.720;7.044;2023-05-10T12:18:44;19.80;1.00
10129;DHT22;5104;50.720;7.044;2023-05-10T12:21:11;19.60;99.90
10129;DHT22;5104;50.720;7.044;2023-05-10T12:23:40;19.80;99.90
10129;DHT22;5104;50.720;7.044;2023-05-10T12:26:09;19.90;1.00
10129;DHT22;5104;50.720;7.044;2023-05-10T12:28:36;19.40;99.90
10129;DHT22;5104;50.720;7.044;2023-05-10T12:31:03;19.60;88.30
10129;DHT22;5104;50.720;7.044;2023-05-10T12:33:36;19.50;99.90
10129;DHT22;5104;50.720;7.044;2023-05-10T12:36:05;19.20;99.90
10129;DHT22;5104;50.720;7.044;2023-05-10T12:38:34;18.90;1.00
10129;DHT22;5104;50.720;7.044;2023-05-10T12:41:05;18.80;1.00
10129;DHT22;5104;50.720;7.044;2023-05-10T12:43:33;18.60;1.00
10129;DHT22;5104;50.720;7.044;2023-05-10T12:46:04;18.50;1.00
10129;DHT22;5104;50.720;7.044;2023-05-10T12:48:32;18.30;19.30
10129;DHT22;5104;50.720;7.044;2023-05-10T12:50:59;18.50;1.00
10129;DHT22;5104;50.720;7.044;2023-05-10T12:53:26;18.60;1.00
10129;DHT22;5104;50.720;7.044;2023-05-10T12:55:53;18.90;1.00
10129;DHT22;5104;50.720;7.044;2023-05-10T12:58:22;19.10;1.00
10129;DHT22;5104;50.720;7.044;2023-05-10T13:00:49;19.10;1.00
10129;DHT22;5104;50.720;7.044;2023-05-10T13:03:17;19.50;1.00
10129;DHT22;5104;50.720;7.044;2023-05-10T13:05:44;19.70;99.90
10129;DHT22;5104;50.720;7.044;2023-05-10T13:08:11;19.80;99.90
10129;DHT22;5104;50.720;7.044;2023-05-10T13:10:39;20.20;52.60
10129;DHT22;5104;50.720;7.044;2023-05-10T13:13:06;20.40;1.00
10129;DHT22;5104;50.720;7.044;2023-05-10T13:15:35;20.30;1.00
10129;DHT22;5104;50.720;7.044;2023-05-10T13:18:02;20.40;1.00
10129;DHT22;5104;50.720;7.044;2023-05-10T13:20:29;20.80;1.00
10129;DHT22;5104;50.720;7.044;2023-05-10T13:22:56;21.10;99.90
10129;DHT22;5104;50.720;7.044;2023-05-10T13:25:23;20.80;99.90
10129;DHT22;5104;50.720;7.044;2023-05-10T13:27:50;20.00;99.90
10129;DHT22;5104;50.720;7.044;2023-05-10T13:30:17;19.90;1.00
10129;DHT22;5104;50.720;7.044;2023-05-10T13:32:45;20.10;1.00
10129;DHT22;5104;50.720;7.044;2023-05-10T13:35:12;20.30;1.00
10129;DHT22;5104;50.720;7.044;2023-05-10T13:37:39;20.40;1.00
10129;DHT22;5104;50.720;7.044;2023-05-10T13:40:07;20.30;1.00
10129;DHT22;5104;50.720;7.044;2023-05-10T13:42:34;20.20;1.00
10129;DHT22;5104;50.720;7.044;2023-05-10T13:45:01;19.90;1.00
10129;DHT22;5104;50.720;7.044;2023-05-10T13:47:28;19.40;99.90
10129;DHT22;5104;50.720;7.044;2023-05-10T13:49:57;19.00;99.90
10129;DHT22;5104;50.720;7.044;2023-05-10T13:52:24;18.70;1.00
10129;DHT22;5104;50.720;7.044;2023-05-10T13:54:50;18.20;1.00
10129;DHT22;5104;50.720;7.044;2023-05-10T13:57:20;18.10;99.90
10129;DHT22;5104;50.720;7.044;2023-05-10T13:59:47;18.20;99.90
10129;DHT22;5104;50.720;7.044;2023-05-10T14:02:14;18.00;84.10
10129;DHT22;5104;50.720;7.044;2023-05-10T14:04:41;18.00;99.90
10129;DHT22;5104;50.720;7.044;2023-05-10T14:07:09;18.00;99.90
10129;DHT22;5104;50.720;7.044;2023-05-10T14:09:36;17.80;99.90
10129;DHT22;5104;50.720;7.044;2023-05-10T14:12:03;17.90;99.90
10129;DHT22;5104;50.720;7.044;2023-05-10T14:14:30;17.70;99.90
10129;DHT22;5104;50.720;7.044;2023-05-10T14:16:57;17.70;99.90
10129;DHT22;5104;50.720;7.044;2023-05-10T14:19:24;17.70;99.90
10129;DHT22;5104;50.720;7.044;2023-05-10T14:21:52;17.70;1.00
10129;DHT22;5104;50.720;7.044;2023-05-10T14:24:20;17.60;1.00
10129;DHT22;5104;50.720;7.044;2023-05-10T14:26:47;17.60;99.90
10129;DHT22;5104;50.720;7.044;2023-05-10T14:29:14;17.60;1.00
10129;DHT22;5104;50.720;7.044;2023-05-10T14:31:41;17.50;1.00
10129;DHT22;5104;50.720;7.044;2023-05-10T14:34:08;17.50;1.00
10129;DHT22;5104;50.720;7.044;2023-05-10T14:36:35;17.60;1.00
10129;DHT22;5104;50.720;7.044;2023-05-10T14:39:02;17.50;1.00
10129;DHT22;5104;50.720;7.044;2023-05-10T14:41:30;17.50;99.90
10129;DHT22;5104;50.720;7.044;2023-05-10T14:43:57;17.40;1.00
10129;DHT22;5104;50.720;7.044;2023-05-10T14:46:24;17.20;69.80
10129;DHT22;5104;50.720;7.044;2023-05-10T14:48:51;17.20;99.90
10129;DHT22;5104;50.720;7.044;2023-05-10T14:51:18;17.50;99.90
10129;DHT22;5104;50.720;7.044;2023-05-10T14:53:47;17.80;1.00
10129;DHT22;5104;50.720;7.044;2023-05-10T14:56:15;18.00;1.00
10129;DHT22;5104;50.720;7.044;2023-05-10T14:58:43;18.10;1.00
10129;DHT22;5104;50.720;7.044;2023-05-10T15:01:10;18.10;1.00
10129;DHT22;5104;50.720;7.044;2023-05-10T15:03:37;18.00;99.90
10129;DHT22;5104;50.720;7.044;2023-05-10T15:06:04;17.80;1.00
10129;DHT22;5104;50.720;7.044;2023-05-10T15:08:31;17.60;1.00
10129;DHT22;5104;50.720;7.044;2023-05-10T15:10:58;17.50;86.90
10129;DHT22;5104;50.720;7.044;2023-05-10T15:13:25;17.30;99.90
10129;DHT22;5104;50.720;7.044;2023-05-10T15:15:53;17.10;99.90
10129;DHT22;5104;50.720;7.044;2023-05-10T15:18:20;16.80;1.00
10129;DHT22;5104;50.720;7.044;2023-05-10T15:20:47;16.50;99.90
10129;DHT22;5104;50.720;7.044;2023-05-10T15:23:14;16.30;99.90
10129;DHT22;5104;50.720;7.044;2023-05-10T15:25:41;16.10;99.90
10129;DHT22;5104;50.720;7.044;2023-05-10T15:28:08;16.00;99.90
10129;DHT22;5104;50.720;7.044;2023-05-10T15:30:35;15.80;99.90
10129;DHT22;5104;50.720;7.044;2023-05-10T15:33:03;15.70;99.90
10129;DHT22;5104;50.720;7.044;2023-05-10T15:35:30;15.60;99.90
10129;DHT22;5104;50.720;7.044;2023-05-10T15:37:57;15.50;99.90
10129;DHT22;5104;50.720;7.044;2023-05-10T15:40:24;15.50;99.90
10129;DHT22;5104;50.720;7.044;2023-05-10T15:42:51;15.60;99.90
10129;DHT22;5104;50.720;7.044;2023-05-10T15:45:18;15.60;99.90
10129;DHT22;5104;50.720;7.044;2023-05-10T15:47:46;15.60;99.90
10129;DHT22;5104;50.720;7.044;2023-05-10T15:50:15;15.70;99.90
10129;DHT22;5104;50.720;7.044;2023-05-10T15:52:42;15.70;99.90
10129;DHT22;5104;50.720;7.044;2023-05-10T15:55:09;15.90;99.90
10129;DHT22;5104;50.720;7.044;2023-05-10T15:57:37;16.00;99.90
10129;DHT22;5104;50.720;7.044;2023-05-10T16:00:06;16.30;99.90
10129;DHT22;5104;50.720;7.044;2023-05-10T16:02:34;16.40;99.90
10129;DHT22;5104;50.720;7.044;2023-05-10T16:05:01;16.70;99.90
10129;DHT22;5104;50.720;7.044;2023-05-10T16:07:29;16.80;1.00
10129;DHT22;5104;50.720;7.044;2023-05-10T16:09:56;16.90;1.00